createdAt,value
2022-10-20T00:01:07.587Z,14.23
2022-10-20T00:03:34.139Z,14.16
2022-10-20T00:06:15.667Z,14.08
2022-10-20T00:08:43.148Z,14.09
2022-10-20T00:11:11.134Z,14.20
2022-10-20T00:13:38.963Z,14.24
2022-10-20T00:16:05.800Z,14.22
2022-10-20T00:18:32.699Z,14.11
2022-10-20T00:20:59.291Z,14.10
2022-10-20T00:23:26.471Z,14.01
2022-10-20T00:26:06.745Z,14.09
2022-10-20T00:28:33.321Z,14.12
2022-10-20T00:30:59.941Z,14.22
2022-10-20T00:33:26.904Z,14.16
2022-10-20T00:35:53.368Z,14.18
2022-10-20T00:38:19.836Z,14.14
2022-10-20T00:40:46.209Z,14.10
2022-10-20T00:43:14.133Z,14.06
2022-10-20T00:45:43.300Z,14.08
2022-10-20T00:48:16.691Z,14.08
2022-10-20T00:50:50.845Z,14.08
2022-10-20T00:53:18.415Z,14.07
2022-10-20T00:55:48.870Z,14.12
2022-10-20T00:58:15.731Z,13.86
2022-10-20T01:00:43.308Z,13.92
2022-10-20T01:03:16.618Z,14.04
2022-10-20T01:05:43.046Z,13.98
2022-10-20T01:08:09.578Z,14.01
2022-10-20T01:10:42.357Z,13.95
2022-10-20T01:13:38.006Z,13.95
2022-10-20T01:16:42.920Z,14.00
2022-10-20T01:19:24.167Z,13.97
2022-10-20T01:21:50.490Z,13.93
2022-10-20T01:24:45.871Z,13.82
2022-10-20T01:27:27.475Z,13.77
2022-10-20T01:30:14.059Z,13.92
2022-10-20T01:32:55.664Z,13.96
2022-10-20T01:35:42.164Z,13.92
2022-10-20T01:38:20.558Z,13.91
2022-10-20T01:40:58.734Z,13.79
2022-10-20T01:43:29.631Z,13.83
2022-10-20T01:45:58.727Z,13.80
2022-10-20T01:48:29.345Z,13.66
2022-10-20T01:50:56.201Z,13.64
2022-10-20T01:53:22.910Z,13.66
2022-10-20T01:55:54.897Z,13.65
2022-10-20T01:58:24.309Z,13.65
2022-10-20T02:00:54.258Z,13.69
2022-10-20T02:03:36.845Z,13.71
2022-10-20T02:06:08.618Z,13.72
2022-10-20T02:08:51.851Z,13.68
2022-10-20T02:11:26.208Z,13.71
2022-10-20T02:13:56.176Z,13.68
2022-10-20T02:16:47.813Z,13.72
2022-10-20T02:19:18.501Z,13.72
2022-10-20T02:21:46.147Z,13.67
2022-10-20T02:24:15.939Z,13.71
2022-10-20T02:26:43.625Z,13.64
2022-10-20T02:29:15.002Z,13.62
2022-10-20T02:31:43.234Z,13.57
2022-10-20T02:34:11.218Z,13.44
2022-10-20T02:36:42.591Z,13.41
2022-10-20T02:39:09.954Z,13.45
2022-10-20T02:41:37.032Z,13.52
2022-10-20T02:44:03.754Z,13.47
2022-10-20T02:46:30.281Z,13.45
2022-10-20T02:48:56.714Z,13.39
2022-10-20T02:51:23.125Z,13.47
2022-10-20T02:53:49.939Z,13.55
2022-10-20T02:56:16.513Z,13.43
2022-10-20T02:58:42.910Z,13.46
2022-10-20T03:01:09.291Z,13.53
2022-10-20T03:03:35.670Z,13.50
2022-10-20T03:06:10.662Z,13.45
2022-10-20T03:08:37.145Z,13.35
2022-10-20T03:11:04.035Z,13.35
2022-10-20T03:13:31.063Z,13.26
2022-10-20T03:15:57.492Z,13.44
2022-10-20T03:18:23.993Z,13.48
2022-10-20T03:20:51.897Z,13.50
2022-10-20T03:23:20.065Z,13.45
2022-10-20T03:25:47.319Z,13.34
2022-10-20T03:28:14.171Z,13.25
2022-10-20T03:30:40.640Z,13.37
2022-10-20T03:33:07.156Z,13.35
2022-10-20T03:35:33.649Z,13.35
2022-10-20T03:38:00.041Z,13.32
2022-10-20T03:40:26.433Z,13.31
2022-10-20T03:42:52.785Z,13.17
2022-10-20T03:45:19.178Z,13.26
2022-10-20T03:47:45.601Z,13.28
2022-10-20T03:50:12.036Z,13.35
2022-10-20T03:52:38.645Z,13.33
2022-10-20T03:55:05.635Z,13.35
2022-10-20T03:57:32.129Z,13.37
2022-10-20T03:59:58.552Z,13.16
2022-10-20T04:02:37.816Z,13.22
2022-10-20T04:05:05.478Z,13.29
2022-10-20T04:07:32.024Z,13.22
2022-10-20T04:09:58.710Z,13.10
2022-10-20T04:12:25.137Z,12.98
2022-10-20T04:14:51.564Z,13.04
2022-10-20T04:17:17.989Z,13.17
2022-10-20T04:19:44.340Z,13.14
2022-10-20T04:22:10.743Z,13.11
2022-10-20T04:24:37.123Z,13.15
2022-10-20T04:27:04.309Z,13.01
2022-10-20T04:29:31.019Z,13.03
2022-10-20T04:31:58.020Z,13.09
2022-10-20T04:34:24.462Z,13.08
2022-10-20T04:36:50.846Z,13.10
2022-10-20T04:39:17.398Z,13.18
2022-10-20T04:41:43.927Z,13.20
2022-10-20T04:44:10.372Z,13.20
2022-10-20T04:46:36.770Z,13.16
2022-10-20T04:49:04.279Z,13.10
2022-10-20T04:51:30.941Z,13.12
2022-10-20T04:53:57.637Z,13.18
2022-10-20T04:56:24.190Z,13.14
2022-10-20T04:58:52.729Z,13.17
2022-10-20T05:01:20.402Z,13.20
2022-10-20T05:03:47.340Z,13.17
2022-10-20T05:06:22.576Z,13.16
2022-10-20T05:08:51.588Z,13.06
2022-10-20T05:11:19.739Z,13.04
2022-10-20T05:13:46.533Z,13.17
2022-10-20T05:16:13.684Z,13.11
2022-10-20T05:18:40.807Z,13.15
2022-10-20T05:21:19.281Z,13.17
2022-10-20T05:23:46.136Z,13.14
2022-10-20T05:26:15.754Z,13.10
2022-10-20T05:28:47.378Z,13.17
2022-10-20T05:31:14.905Z,13.27
2022-10-20T05:33:46.048Z,13.30
2022-10-20T05:36:19.250Z,13.21
2022-10-20T05:38:49.214Z,13.22
2022-10-20T05:41:19.019Z,13.11
2022-10-20T05:43:53.451Z,13.23
2022-10-20T05:46:20.520Z,13.21
2022-10-20T05:48:47.291Z,13.23
2022-10-20T05:51:19.440Z,13.27
2022-10-20T05:53:49.657Z,13.24
2022-10-20T05:56:19.010Z,13.28
2022-10-20T05:58:45.956Z,13.33
2022-10-20T06:01:18.208Z,13.32
2022-10-20T06:04:02.859Z,13.38
2022-10-20T06:06:30.846Z,13.31
2022-10-20T06:08:59.221Z,13.32
2022-10-20T06:11:26.527Z,13.33
2022-10-20T06:13:53.559Z,13.33
2022-10-20T06:16:25.265Z,13.33
2022-10-20T06:18:51.963Z,13.33
2022-10-20T06:21:23.978Z,13.43
2022-10-20T06:23:50.613Z,13.47
2022-10-20T06:26:23.078Z,13.42
2022-10-20T06:28:56.696Z,13.44
2022-10-20T06:31:27.734Z,13.46
2022-10-20T06:33:54.924Z,13.45
2022-10-20T06:36:22.384Z,13.41
2022-10-20T06:38:53.087Z,13.44
2022-10-20T06:41:19.484Z,13.45
2022-10-20T06:43:45.877Z,13.53
2022-10-20T06:46:15.019Z,13.53
2022-10-20T06:48:41.493Z,13.52
2022-10-20T06:51:12.515Z,13.50
2022-10-20T06:53:42.692Z,13.43
2022-10-20T06:56:17.861Z,13.47
2022-10-20T06:58:47.443Z,13.52
2022-10-20T07:01:25.871Z,13.55
2022-10-20T07:03:55.179Z,13.51
2022-10-20T07:06:24.505Z,13.58
2022-10-20T07:08:53.760Z,13.60
2022-10-20T07:11:22.381Z,13.61
2022-10-20T07:13:49.295Z,13.53
2022-10-20T07:16:20.758Z,13.57
2022-10-20T07:18:48.071Z,13.57
2022-10-20T07:21:17.248Z,13.50
2022-10-20T07:23:44.362Z,13.65
2022-10-20T07:26:15.269Z,13.66
2022-10-20T07:28:43.654Z,13.70
2022-10-20T07:31:16.418Z,13.74
2022-10-20T07:33:43.123Z,13.83
2022-10-20T07:36:14.755Z,13.88
2022-10-20T07:38:41.512Z,13.88
2022-10-20T07:41:08.931Z,13.92
2022-10-20T07:43:36.469Z,13.98
2022-10-20T07:46:03.325Z,13.97
2022-10-20T07:48:29.711Z,13.94
2022-10-20T07:51:32.261Z,13.98
2022-10-20T07:54:02.790Z,14.02
2022-10-20T07:56:32.710Z,14.16
2022-10-20T07:58:59.517Z,14.20
2022-10-20T08:01:26.073Z,14.25
2022-10-20T08:03:52.635Z,14.28
2022-10-20T08:06:19.020Z,14.37
2022-10-20T08:08:45.571Z,14.43
2022-10-20T08:11:12.504Z,14.47
2022-10-20T08:13:40.892Z,14.52
2022-10-20T08:16:15.963Z,14.57
2022-10-20T08:18:52.157Z,14.58
2022-10-20T08:21:20.556Z,14.63
2022-10-20T08:23:48.272Z,14.71
2022-10-20T08:26:21.245Z,14.79
2022-10-20T08:28:49.267Z,14.83
2022-10-20T08:31:15.776Z,14.89
2022-10-20T08:33:42.159Z,14.97
2022-10-20T08:36:11.449Z,15.04
2022-10-20T08:38:38.722Z,15.12
2022-10-20T08:41:12.745Z,15.22
2022-10-20T08:43:41.804Z,15.30
2022-10-20T08:46:16.230Z,15.36
2022-10-20T08:48:44.245Z,15.41
2022-10-20T08:51:18.717Z,15.44
2022-10-20T08:53:47.586Z,15.45
2022-10-20T08:56:14.818Z,15.48
2022-10-20T08:58:45.282Z,15.54
2022-10-20T09:01:21.383Z,15.59
2022-10-20T09:04:10.978Z,15.58
2022-10-20T09:06:37.621Z,15.59
2022-10-20T09:09:04.196Z,15.61
2022-10-20T09:11:40.143Z,15.67
2022-10-20T09:14:10.163Z,15.72
2022-10-20T09:16:55.426Z,15.75
2022-10-20T09:19:27.093Z,15.79
2022-10-20T09:21:57.483Z,15.80
2022-10-20T09:24:27.462Z,15.79
2022-10-20T09:26:58.714Z,15.82
2022-10-20T09:29:38.087Z,15.83
2022-10-20T09:32:52.351Z,15.86
2022-10-20T09:35:35.622Z,15.88
2022-10-20T09:38:16.548Z,15.92
2022-10-20T09:40:46.581Z,15.97
2022-10-20T09:43:18.219Z,16.03
2022-10-20T09:45:53.247Z,16.12
2022-10-20T09:48:33.083Z,16.15
2022-10-20T09:51:00.764Z,16.24
2022-10-20T09:53:32.259Z,16.29
2022-10-20T09:55:58.916Z,16.33
2022-10-20T09:58:33.918Z,16.35
2022-10-20T10:01:05.040Z,16.40
2022-10-20T10:03:47.732Z,16.44
2022-10-20T10:06:44.093Z,16.44
2022-10-20T10:09:50.808Z,16.43
2022-10-20T10:12:19.412Z,16.43
2022-10-20T10:14:54.209Z,16.46
2022-10-20T10:17:40.154Z,16.47
2022-10-20T10:20:23.313Z,16.43
2022-10-20T10:22:49.898Z,16.38
2022-10-20T10:25:27.790Z,16.41
2022-10-20T10:28:06.766Z,16.37
2022-10-20T10:30:38.247Z,16.37
2022-10-20T10:33:23.487Z,16.36
2022-10-20T10:35:50.025Z,16.34
2022-10-20T10:38:16.560Z,16.36
2022-10-20T10:41:20.861Z,16.43
2022-10-20T10:43:48.778Z,16.45
2022-10-20T10:46:36.763Z,16.45
2022-10-20T10:49:34.084Z,16.48
2022-10-20T10:52:18.696Z,16.48
2022-10-20T10:55:06.016Z,16.48
2022-10-20T10:58:08.729Z,16.57
2022-10-20T11:00:47.164Z,16.59
2022-10-20T11:03:41.576Z,16.62
2022-10-20T11:06:21.500Z,16.64
2022-10-20T11:08:47.850Z,16.66
2022-10-20T11:11:52.332Z,16.70
2022-10-20T11:14:37.594Z,16.74
2022-10-20T11:17:29.362Z,16.78
2022-10-20T11:20:08.609Z,16.82
2022-10-20T11:22:52.046Z,16.87
2022-10-20T11:25:38.843Z,16.91
2022-10-20T11:28:24.722Z,16.96
2022-10-20T11:30:51.482Z,17.01
2022-10-20T11:33:23.553Z,17.05
2022-10-20T11:36:06.704Z,17.10
2022-10-20T11:38:59.090Z,17.15
2022-10-20T11:41:38.282Z,17.15
2022-10-20T11:44:12.300Z,17.17
2022-10-20T11:46:54.627Z,17.25
2022-10-20T11:49:21.338Z,17.23
2022-10-20T11:52:18.176Z,17.25
2022-10-20T11:55:02.863Z,17.32
2022-10-20T11:58:04.032Z,17.34
2022-10-20T12:00:59.653Z,17.37
2022-10-20T12:03:41.184Z,17.42
2022-10-20T12:06:51.248Z,17.48
2022-10-20T12:09:42.686Z,17.57
2022-10-20T12:12:27.932Z,17.61
2022-10-20T12:14:59.386Z,17.62
2022-10-20T12:17:40.979Z,17.65
2022-10-20T12:20:36.362Z,17.67
2022-10-20T12:23:02.960Z,17.67
2022-10-20T12:25:41.329Z,17.68
2022-10-20T12:28:19.668Z,17.68
2022-10-20T12:30:58.607Z,17.67
2022-10-20T12:33:38.176Z,17.73
2022-10-20T12:36:16.787Z,17.76
2022-10-20T12:38:45.734Z,17.67
2022-10-20T12:41:34.771Z,17.68
2022-10-20T12:44:16.160Z,17.65
2022-10-20T12:46:52.067Z,17.62
2022-10-20T12:49:40.388Z,17.59
2022-10-20T12:52:17.382Z,17.54
2022-10-20T12:54:48.420Z,17.52
2022-10-20T12:57:41.314Z,17.49
2022-10-20T13:00:27.821Z,17.44
2022-10-20T13:02:56.024Z,17.41
2022-10-20T13:05:39.954Z,17.39
2022-10-20T13:08:28.703Z,17.38
2022-10-20T13:10:55.275Z,17.37
2022-10-20T13:13:21.595Z,17.33
2022-10-20T13:15:54.643Z,17.30
2022-10-20T13:18:28.645Z,17.28
2022-10-20T13:21:22.546Z,17.24
2022-10-20T13:23:58.882Z,17.21
2022-10-20T13:26:43.350Z,17.22
2022-10-20T13:29:13.672Z,17.18
2022-10-20T13:31:42.819Z,17.21
2022-10-20T13:34:24.403Z,17.27
2022-10-20T13:37:07.540Z,17.27
2022-10-20T13:40:05.019Z,17.25
2022-10-20T13:42:42.385Z,17.27
2022-10-20T13:45:20.832Z,17.29
2022-10-20T13:48:15.429Z,17.30
2022-10-20T13:50:53.334Z,17.32
2022-10-20T13:53:22.838Z,17.32
2022-10-20T13:55:59.389Z,17.32
2022-10-20T13:58:26.619Z,17.25
2022-10-20T14:01:02.341Z,17.29
2022-10-20T14:03:31.074Z,17.30
2022-10-20T14:05:59.202Z,17.30
2022-10-20T14:08:25.981Z,17.25
2022-10-20T14:11:04.616Z,17.23
2022-10-20T14:13:34.479Z,17.23
2022-10-20T14:16:04.196Z,17.20
2022-10-20T14:18:35.617Z,17.24
2022-10-20T14:21:08.753Z,17.20
2022-10-20T14:23:38.312Z,17.17
2022-10-20T14:26:10.430Z,17.16
2022-10-20T14:28:38.790Z,17.17
2022-10-20T14:31:06.120Z,17.16
2022-10-20T14:33:36.426Z,17.12
2022-10-20T14:36:04.612Z,17.12
2022-10-20T14:38:37.751Z,17.10
2022-10-20T14:41:06.603Z,17.09
2022-10-20T14:43:39.654Z,17.10
2022-10-20T14:46:07.212Z,17.09
2022-10-20T14:48:38.172Z,17.07
2022-10-20T14:51:32.601Z,17.06
2022-10-20T14:54:20.863Z,17.04
2022-10-20T14:56:50.223Z,17.02
2022-10-20T14:59:19.190Z,17.05
2022-10-20T15:01:56.218Z,17.06
2022-10-20T15:04:26.804Z,17.06
2022-10-20T15:07:16.697Z,17.01
2022-10-20T15:10:07.612Z,17.00
2022-10-20T15:12:37.237Z,16.96
2022-10-20T15:15:21.632Z,16.93
2022-10-20T15:18:11.811Z,16.90
2022-10-20T15:20:40.220Z,16.90
2022-10-20T15:23:12.599Z,16.88
2022-10-20T15:25:47.350Z,16.89
2022-10-20T15:28:45.025Z,16.88
2022-10-20T15:31:29.743Z,16.87
2022-10-20T15:33:57.514Z,16.88
2022-10-20T15:36:31.812Z,16.87
2022-10-20T15:38:58.875Z,16.84
2022-10-20T15:41:28.108Z,16.83
2022-10-20T15:43:54.504Z,16.79
2022-10-20T15:46:21.023Z,16.75
2022-10-20T15:48:47.533Z,16.74
2022-10-20T15:51:22.425Z,16.73
2022-10-20T15:53:49.858Z,16.68
2022-10-20T15:56:19.834Z,16.67
2022-10-20T15:58:46.743Z,16.64
2022-10-20T16:01:14.814Z,16.63
2022-10-20T16:03:43.179Z,16.61
2022-10-20T16:06:13.422Z,16.59
2022-10-20T16:08:41.206Z,16.53
2022-10-20T16:11:08.403Z,16.52
2022-10-20T16:13:35.256Z,16.51
2022-10-20T16:16:02.097Z,16.50
2022-10-20T16:18:28.522Z,16.45
2022-10-20T16:20:58.082Z,16.43
2022-10-20T16:23:25.011Z,16.40
2022-10-20T16:25:51.736Z,16.40
2022-10-20T16:28:18.337Z,16.39
2022-10-20T16:30:44.719Z,16.34
2022-10-20T16:33:11.314Z,16.31
2022-10-20T16:35:42.628Z,16.28
2022-10-20T16:38:09.140Z,16.25
2022-10-20T16:40:35.956Z,16.22
2022-10-20T16:43:02.568Z,16.19
2022-10-20T16:45:29.319Z,16.17
2022-10-20T16:47:55.718Z,16.17
2022-10-20T16:50:22.097Z,16.16
2022-10-20T16:52:48.471Z,16.10
2022-10-20T16:55:14.972Z,16.05
2022-10-20T16:57:41.337Z,16.05
2022-10-20T17:00:08.879Z,16.02
2022-10-20T17:02:36.387Z,16.01
2022-10-20T17:05:06.653Z,15.98
2022-10-20T17:07:35.927Z,15.93
2022-10-20T17:10:02.520Z,15.91
2022-10-20T17:12:28.868Z,15.92
2022-10-20T17:14:55.305Z,15.96
2022-10-20T17:17:21.655Z,15.99
2022-10-20T17:19:48.015Z,15.96
2022-10-20T17:22:14.475Z,15.97
2022-10-20T17:24:40.838Z,15.90
2022-10-20T17:27:07.272Z,15.88
2022-10-20T17:29:33.643Z,15.84
2022-10-20T17:32:00.034Z,15.84
2022-10-20T17:34:26.425Z,15.78
2022-10-20T17:36:52.850Z,15.75
2022-10-20T17:39:21.887Z,15.76
2022-10-20T17:41:48.426Z,15.68
2022-10-20T17:44:14.833Z,15.66
2022-10-20T17:46:43.169Z,15.67
2022-10-20T17:49:09.641Z,15.66
2022-10-20T17:51:36.106Z,15.63
2022-10-20T17:54:03.503Z,15.63
2022-10-20T17:56:32.371Z,15.61
2022-10-20T17:59:02.826Z,15.63
2022-10-20T18:01:40.375Z,15.58
2022-10-20T18:04:10.342Z,15.60
2022-10-20T18:06:37.614Z,15.58
2022-10-20T18:09:07.185Z,15.57
2022-10-20T18:11:35.365Z,15.59
2022-10-20T18:14:02.160Z,15.60
2022-10-20T18:16:31.873Z,15.49
2022-10-20T18:18:59.567Z,15.49
2022-10-20T18:21:28.048Z,15.49
2022-10-20T18:24:01.959Z,15.47
2022-10-20T18:26:29.994Z,15.46
2022-10-20T18:28:58.596Z,15.42
2022-10-20T18:31:27.385Z,15.41
2022-10-20T18:34:04.052Z,15.44
2022-10-20T18:36:31.052Z,15.37
2022-10-20T18:38:58.573Z,15.36
2022-10-20T18:41:27.612Z,15.41
2022-10-20T18:43:58.127Z,15.41
2022-10-20T18:46:26.497Z,15.43
2022-10-20T18:48:53.482Z,15.44
2022-10-20T18:51:20.000Z,15.42
2022-10-20T18:53:47.036Z,15.39
2022-10-20T18:56:18.694Z,15.34
2022-10-20T18:58:51.216Z,15.37
2022-10-20T19:01:20.626Z,15.35
2022-10-20T19:03:52.619Z,15.35
2022-10-20T19:06:23.742Z,15.36
2022-10-20T19:08:58.809Z,15.40
2022-10-20T19:11:30.860Z,15.38
2022-10-20T19:13:57.716Z,15.38
2022-10-20T19:16:26.620Z,15.35
2022-10-20T19:18:55.114Z,15.31
2022-10-20T19:21:22.769Z,15.31
2022-10-20T19:23:56.040Z,15.33
2022-10-20T19:26:28.498Z,15.28
2022-10-20T19:28:59.559Z,15.35
2022-10-20T19:31:31.750Z,15.37
2022-10-20T19:34:01.947Z,15.36
2022-10-20T19:36:29.274Z,15.28
2022-10-20T19:38:56.439Z,15.19
2022-10-20T19:41:23.087Z,15.18
2022-10-20T19:43:51.520Z,15.21
2022-10-20T19:46:20.438Z,15.32
2022-10-20T19:48:47.800Z,15.34
2022-10-20T19:51:16.250Z,15.30
2022-10-20T19:53:42.899Z,15.32
2022-10-20T19:56:10.919Z,15.30
2022-10-20T19:58:41.343Z,15.29
2022-10-20T20:01:10.433Z,15.29
2022-10-20T20:03:37.082Z,15.29
2022-10-20T20:06:09.383Z,15.28
2022-10-20T20:08:36.989Z,15.27
2022-10-20T20:11:06.455Z,15.29
2022-10-20T20:13:32.851Z,15.25
2022-10-20T20:16:07.112Z,15.18
2022-10-20T20:18:35.615Z,15.15
2022-10-20T20:21:04.610Z,15.18
2022-10-20T20:23:41.193Z,15.20
2022-10-20T20:26:20.490Z,15.18
2022-10-20T20:28:46.869Z,15.18
2022-10-20T20:31:13.293Z,15.21
2022-10-20T20:33:39.653Z,15.18
2022-10-20T20:36:08.034Z,15.15
2022-10-20T20:38:36.792Z,15.16
2022-10-20T20:41:06.554Z,15.18
2022-10-20T20:43:34.739Z,15.18
2022-10-20T20:46:12.031Z,15.19
2022-10-20T20:48:38.682Z,15.16
2022-10-20T20:51:05.768Z,15.10
2022-10-20T20:56:06.598Z,15.10
2022-10-20T20:58:33.658Z,15.11
2022-10-20T21:01:02.360Z,15.11
2022-10-20T21:03:29.254Z,15.15
2022-10-20T21:05:55.892Z,15.10
2022-10-20T21:08:22.530Z,15.01
2022-10-20T21:10:49.161Z,15.08
2022-10-20T21:13:15.543Z,15.16
2022-10-20T21:15:41.884Z,15.08
2022-10-20T21:18:08.230Z,15.12
2022-10-20T21:20:34.585Z,15.10
2022-10-20T21:23:00.970Z,15.04
2022-10-20T21:25:27.381Z,15.12
2022-10-20T21:27:53.743Z,15.14
2022-10-20T21:30:20.164Z,15.13
2022-10-20T21:32:46.741Z,15.08
2022-10-20T21:35:13.093Z,15.11
2022-10-20T21:37:39.462Z,15.12
2022-10-20T21:40:06.347Z,15.15
2022-10-20T21:42:32.791Z,15.14
2022-10-20T21:44:59.140Z,15.18
2022-10-20T21:47:25.493Z,15.17
2022-10-20T21:49:51.830Z,15.20
2022-10-20T21:52:18.219Z,15.20
2022-10-20T21:54:44.575Z,15.20
2022-10-20T21:57:11.220Z,15.22
2022-10-20T21:59:37.640Z,15.20
2022-10-20T22:02:04.156Z,15.20
2022-10-20T22:04:30.841Z,15.20
2022-10-20T22:06:59.163Z,15.19
2022-10-20T22:09:25.662Z,15.09
2022-10-20T22:11:55.233Z,15.00
2022-10-20T22:14:22.106Z,15.02
2022-10-20T22:16:48.512Z,15.15
2022-10-20T22:19:23.265Z,15.21
2022-10-20T22:21:51.591Z,15.18
2022-10-20T22:24:18.963Z,15.21
2022-10-20T22:26:46.300Z,15.18
2022-10-20T22:29:13.070Z,15.18
2022-10-20T22:31:40.536Z,15.21
2022-10-20T22:34:07.641Z,15.20
2022-10-20T22:36:34.383Z,15.23
2022-10-20T22:39:00.888Z,15.18
2022-10-20T22:41:27.438Z,15.19
2022-10-20T22:43:53.872Z,15.15
2022-10-20T22:46:20.584Z,15.22
2022-10-20T22:48:47.294Z,15.27
2022-10-20T22:51:14.092Z,15.27
2022-10-20T22:53:40.637Z,15.24
2022-10-20T22:56:19.575Z,15.24
2022-10-20T22:58:46.642Z,15.24
2022-10-20T23:01:21.221Z,15.20
2022-10-20T23:03:48.171Z,15.14
2022-10-20T23:06:17.406Z,15.17
2022-10-20T23:08:48.196Z,15.19
2022-10-20T23:11:15.613Z,15.18
2022-10-20T23:13:43.115Z,15.17
2022-10-20T23:16:10.541Z,15.20
2022-10-20T23:18:37.423Z,15.17
2022-10-20T23:21:04.909Z,15.04
2022-10-20T23:23:32.671Z,15.04
2022-10-20T23:26:00.940Z,14.99
2022-10-20T23:28:30.801Z,15.07
2022-10-20T23:31:18.056Z,15.14
2022-10-20T23:33:46.237Z,15.14
2022-10-20T23:36:14.740Z,15.14
2022-10-20T23:38:42.283Z,15.10
2022-10-20T23:41:09.666Z,15.14
2022-10-20T23:46:08.271Z,15.14
2022-10-20T23:48:35.148Z,15.15
2022-10-20T23:51:01.493Z,15.16
2022-10-20T23:53:27.906Z,15.14
2022-10-20T23:55:54.386Z,15.17
2022-10-20T23:58:22.495Z,15.09
